sensor_id;sensor_type;location;lat;lon;timestamp;P1;durP1;ratioP1;P2;durP2;ratioP2
17631;SDS011;8934;51.194;17.150;2022-11-15T00:06:27;46.20;;;28.57;;
17631;SDS011;8934;51.194;17.150;2022-11-15T00:15:47;42.17;;;27.27;;
17631;SDS011;8934;51.194;17.150;2022-11-15T00:18:53;57.83;;;32.77;;
17631;SDS011;8934;51.194;17.150;2022-11-15T00:21:59;51.30;;;30.13;;
17631;SDS011;8934;51.194;17.150;2022-11-15T00:25:06;53.07;;;33.37;;
17631;SDS011;8934;51.194;17.150;2022-11-15T00:28:12;54.50;;;31.67;;
17631;SDS011;8934;51.194;17.150;2022-11-15T00:31:20;54.07;;;30.67;;
17631;SDS011;8934;51.194;17.150;2022-11-15T00:34:26;61.00;;;33.17;;
17631;SDS011;8934;51.194;17.150;2022-11-15T00:37:32;57.07;;;33.87;;
17631;SDS011;8934;51.194;17.150;2022-11-15T00:40:38;55.63;;;33.10;;
17631;SDS011;8934;51.194;17.150;2022-11-15T00:43:44;58.27;;;33.80;;
17631;SDS011;8934;51.194;17.150;2022-11-15T00:46:53;52.77;;;30.87;;
17631;SDS011;8934;51.194;17.150;2022-11-15T00:49:59;47.77;;;30.87;;
17631;SDS011;8934;51.194;17.150;2022-11-15T00:53:05;53.20;;;31.10;;
17631;SDS011;8934;51.194;17.150;2022-11-15T00:56:11;51.43;;;30.93;;
17631;SDS011;8934;51.194;17.150;2022-11-15T00:59:18;45.70;;;29.13;;
17631;SDS011;8934;51.194;17.150;2022-11-15T01:02:25;45.63;;;28.37;;
17631;SDS011;8934;51.194;17.150;2022-11-15T01:05:32;51.07;;;30.97;;
17631;SDS011;8934;51.194;17.150;2022-11-15T01:08:38;51.30;;;30.83;;
17631;SDS011;8934;51.194;17.150;2022-11-15T01:11:45;70.27;;;37.80;;
17631;SDS011;8934;51.194;17.150;2022-11-15T01:14:52;71.33;;;37.97;;
17631;SDS011;8934;51.194;17.150;2022-11-15T01:17:59;61.33;;;34.93;;
17631;SDS011;8934;51.194;17.150;2022-11-15T01:21:07;62.03;;;34.47;;
17631;SDS011;8934;51.194;17.150;2022-11-15T01:24:14;66.40;;;36.07;;
17631;SDS011;8934;51.194;17.150;2022-11-15T01:27:20;54.33;;;32.47;;
17631;SDS011;8934;51.194;17.150;2022-11-15T01:30:26;70.17;;;37.20;;
17631;SDS011;8934;51.194;17.150;2022-11-15T01:33:35;59.23;;;34.73;;
17631;SDS011;8934;51.194;17.150;2022-11-15T01:36:41;51.93;;;31.87;;
17631;SDS011;8934;51.194;17.150;2022-11-15T01:39:47;52.17;;;31.97;;
17631;SDS011;8934;51.194;17.150;2022-11-15T01:42:53;50.20;;;31.83;;
17631;SDS011;8934;51.194;17.150;2022-11-15T01:46:00;50.87;;;30.80;;
17631;SDS011;8934;51.194;17.150;2022-11-15T01:49:12;50.60;;;29.40;;
17631;SDS011;8934;51.194;17.150;2022-11-15T01:52:22;44.17;;;27.77;;
17631;SDS011;8934;51.194;17.150;2022-11-15T01:55:31;46.50;;;28.07;;
17631;SDS011;8934;51.194;17.150;2022-11-15T01:58:38;47.87;;;27.53;;
17631;SDS011;8934;51.194;17.150;2022-11-15T02:01:46;52.47;;;29.43;;
17631;SDS011;8934;51.194;17.150;2022-11-15T02:04:54;53.50;;;31.37;;
17631;SDS011;8934;51.194;17.150;2022-11-15T02:08:00;44.37;;;27.00;;
17631;SDS011;8934;51.194;17.150;2022-11-15T02:11:07;47.50;;;27.73;;
17631;SDS011;8934;51.194;17.150;2022-11-15T02:14:14;50.40;;;29.77;;
17631;SDS011;8934;51.194;17.150;2022-11-15T02:17:29;55.00;;;31.23;;
17631;SDS011;8934;51.194;17.150;2022-11-15T02:20:48;46.57;;;28.37;;
17631;SDS011;8934;51.194;17.150;2022-11-15T02:24:09;53.60;;;31.20;;
17631;SDS011;8934;51.194;17.150;2022-11-15T02:31:16;48.63;;;29.70;;
17631;SDS011;8934;51.194;17.150;2022-11-15T02:34:34;54.07;;;30.87;;
17631;SDS011;8934;51.194;17.150;2022-11-15T02:37:51;58.43;;;33.17;;
17631;SDS011;8934;51.194;17.150;2022-11-15T02:41:02;49.37;;;30.97;;
17631;SDS011;8934;51.194;17.150;2022-11-15T02:44:13;56.23;;;32.10;;
17631;SDS011;8934;51.194;17.150;2022-11-15T02:47:27;59.70;;;33.27;;
17631;SDS011;8934;51.194;17.150;2022-11-15T02:50:37;55.03;;;33.60;;
17631;SDS011;8934;51.194;17.150;2022-11-15T02:53:43;59.90;;;33.40;;
17631;SDS011;8934;51.194;17.150;2022-11-15T02:56:50;56.43;;;32.60;;
17631;SDS011;8934;51.194;17.150;2022-11-15T03:00:03;54.90;;;32.67;;
17631;SDS011;8934;51.194;17.150;2022-11-15T03:03:16;54.13;;;30.50;;
17631;SDS011;8934;51.194;17.150;2022-11-15T03:06:39;49.50;;;29.70;;
17631;SDS011;8934;51.194;17.150;2022-11-15T03:09:52;46.87;;;28.17;;
17631;SDS011;8934;51.194;17.150;2022-11-15T03:13:03;47.27;;;29.47;;
17631;SDS011;8934;51.194;17.150;2022-11-15T03:16:18;51.57;;;29.67;;
17631;SDS011;8934;51.194;17.150;2022-11-15T03:19:33;57.00;;;31.50;;
17631;SDS011;8934;51.194;17.150;2022-11-15T03:22:45;45.13;;;27.67;;
17631;SDS011;8934;51.194;17.150;2022-11-15T03:25:53;47.00;;;28.07;;
17631;SDS011;8934;51.194;17.150;2022-11-15T03:29:03;49.97;;;29.27;;
17631;SDS011;8934;51.194;17.150;2022-11-15T03:32:13;46.63;;;28.73;;
17631;SDS011;8934;51.194;17.150;2022-11-15T03:35:25;52.60;;;29.90;;
17631;SDS011;8934;51.194;17.150;2022-11-15T03:38:35;54.80;;;30.37;;
17631;SDS011;8934;51.194;17.150;2022-11-15T03:41:42;53.70;;;29.97;;
17631;SDS011;8934;51.194;17.150;2022-11-15T03:44:54;52.37;;;30.67;;
17631;SDS011;8934;51.194;17.150;2022-11-15T03:48:05;52.73;;;31.53;;
17631;SDS011;8934;51.194;17.150;2022-11-15T03:51:18;51.10;;;29.40;;
17631;SDS011;8934;51.194;17.150;2022-11-15T03:54:25;43.87;;;26.27;;
17631;SDS011;8934;51.194;17.150;2022-11-15T03:57:31;50.87;;;28.77;;
17631;SDS011;8934;51.194;17.150;2022-11-15T04:00:37;52.20;;;30.67;;
17631;SDS011;8934;51.194;17.150;2022-11-15T04:03:43;49.20;;;29.80;;
17631;SDS011;8934;51.194;17.150;2022-11-15T04:06:51;49.93;;;30.47;;
17631;SDS011;8934;51.194;17.150;2022-11-15T04:09:57;62.17;;;33.57;;
17631;SDS011;8934;51.194;17.150;2022-11-15T04:13:10;50.87;;;31.87;;
17631;SDS011;8934;51.194;17.150;2022-11-15T04:16:16;54.10;;;31.70;;
17631;SDS011;8934;51.194;17.150;2022-11-15T04:19:21;53.43;;;29.30;;
17631;SDS011;8934;51.194;17.150;2022-11-15T04:22:47;51.27;;;29.07;;
17631;SDS011;8934;51.194;17.150;2022-11-15T04:26:11;50.97;;;31.63;;
17631;SDS011;8934;51.194;17.150;2022-11-15T04:29:20;58.63;;;34.27;;
17631;SDS011;8934;51.194;17.150;2022-11-15T04:32:42;50.03;;;29.67;;
17631;SDS011;8934;51.194;17.150;2022-11-15T04:35:49;60.00;;;32.90;;
17631;SDS011;8934;51.194;17.150;2022-11-15T04:39:10;54.10;;;29.27;;
17631;SDS011;8934;51.194;17.150;2022-11-15T04:42:16;52.50;;;29.47;;
17631;SDS011;8934;51.194;17.150;2022-11-15T04:45:22;55.87;;;31.97;;
17631;SDS011;8934;51.194;17.150;2022-11-15T04:48:29;57.20;;;31.40;;
17631;SDS011;8934;51.194;17.150;2022-11-15T04:51:35;51.63;;;30.07;;
17631;SDS011;8934;51.194;17.150;2022-11-15T04:54:42;53.50;;;31.97;;
17631;SDS011;8934;51.194;17.150;2022-11-15T04:57:56;69.67;;;33.53;;
17631;SDS011;8934;51.194;17.150;2022-11-15T05:01:06;69.97;;;37.67;;
17631;SDS011;8934;51.194;17.150;2022-11-15T05:04:13;59.60;;;33.40;;
17631;SDS011;8934;51.194;17.150;2022-11-15T05:07:25;63.03;;;33.87;;
17631;SDS011;8934;51.194;17.150;2022-11-15T05:10:33;59.40;;;33.30;;
17631;SDS011;8934;51.194;17.150;2022-11-15T05:13:39;64.57;;;33.00;;
17631;SDS011;8934;51.194;17.150;2022-11-15T05:16:46;62.70;;;33.33;;
17631;SDS011;8934;51.194;17.150;2022-11-15T05:19:52;59.90;;;33.37;;
17631;SDS011;8934;51.194;17.150;2022-11-15T05:22:58;64.03;;;34.63;;
17631;SDS011;8934;51.194;17.150;2022-11-15T05:26:06;65.33;;;36.17;;
17631;SDS011;8934;51.194;17.150;2022-11-15T05:29:13;69.70;;;35.87;;
17631;SDS011;8934;51.194;17.150;2022-11-15T05:32:19;61.57;;;31.53;;
17631;SDS011;8934;51.194;17.150;2022-11-15T05:35:29;65.10;;;34.43;;
17631;SDS011;8934;51.194;17.150;2022-11-15T05:38:37;60.57;;;33.63;;
17631;SDS011;8934;51.194;17.150;2022-11-15T05:41:45;63.70;;;35.33;;
17631;SDS011;8934;51.194;17.150;2022-11-15T05:44:54;70.17;;;35.17;;
17631;SDS011;8934;51.194;17.150;2022-11-15T05:48:00;64.57;;;36.10;;
17631;SDS011;8934;51.194;17.150;2022-11-15T05:51:06;70.57;;;35.13;;
17631;SDS011;8934;51.194;17.150;2022-11-15T05:54:13;66.43;;;35.73;;
17631;SDS011;8934;51.194;17.150;2022-11-15T05:57:21;76.47;;;36.70;;
17631;SDS011;8934;51.194;17.150;2022-11-15T06:00:27;88.77;;;42.93;;
17631;SDS011;8934;51.194;17.150;2022-11-15T06:03:34;86.77;;;39.60;;
17631;SDS011;8934;51.194;17.150;2022-11-15T06:06:40;68.77;;;36.97;;
17631;SDS011;8934;51.194;17.150;2022-11-15T06:09:46;69.97;;;35.70;;
17631;SDS011;8934;51.194;17.150;2022-11-15T06:12:57;61.70;;;33.73;;
17631;SDS011;8934;51.194;17.150;2022-11-15T06:16:04;64.50;;;34.60;;
17631;SDS011;8934;51.194;17.150;2022-11-15T06:19:10;62.57;;;32.83;;
17631;SDS011;8934;51.194;17.150;2022-11-15T06:22:17;54.63;;;29.83;;
17631;SDS011;8934;51.194;17.150;2022-11-15T06:25:23;64.23;;;32.23;;
17631;SDS011;8934;51.194;17.150;2022-11-15T06:28:31;64.93;;;34.20;;
17631;SDS011;8934;51.194;17.150;2022-11-15T06:31:38;80.23;;;37.17;;
17631;SDS011;8934;51.194;17.150;2022-11-15T06:34:44;59.43;;;32.97;;
17631;SDS011;8934;51.194;17.150;2022-11-15T06:37:50;66.00;;;34.70;;
17631;SDS011;8934;51.194;17.150;2022-11-15T06:41:01;90.10;;;45.77;;
17631;SDS011;8934;51.194;17.150;2022-11-15T06:44:09;115.37;;;59.63;;
17631;SDS011;8934;51.194;17.150;2022-11-15T06:47:15;97.80;;;50.27;;
17631;SDS011;8934;51.194;17.150;2022-11-15T06:50:21;93.33;;;44.97;;
17631;SDS011;8934;51.194;17.150;2022-11-15T06:53:27;82.40;;;40.90;;
17631;SDS011;8934;51.194;17.150;2022-11-15T06:56:35;76.10;;;38.53;;
17631;SDS011;8934;51.194;17.150;2022-11-15T06:59:42;72.97;;;37.57;;
17631;SDS011;8934;51.194;17.150;2022-11-15T07:02:48;61.37;;;34.90;;
17631;SDS011;8934;51.194;17.150;2022-11-15T07:05:55;62.27;;;33.43;;
17631;SDS011;8934;51.194;17.150;2022-11-15T07:09:10;60.47;;;35.20;;
17631;SDS011;8934;51.194;17.150;2022-11-15T07:12:16;70.10;;;38.30;;
17631;SDS011;8934;51.194;17.150;2022-11-15T07:15:24;60.13;;;35.17;;
17631;SDS011;8934;51.194;17.150;2022-11-15T07:18:33;67.37;;;37.20;;
17631;SDS011;8934;51.194;17.150;2022-11-15T07:21:39;67.70;;;38.47;;
17631;SDS011;8934;51.194;17.150;2022-11-15T07:24:46;69.03;;;37.27;;
17631;SDS011;8934;51.194;17.150;2022-11-15T07:27:55;65.90;;;36.63;;
17631;SDS011;8934;51.194;17.150;2022-11-15T07:31:03;69.80;;;38.33;;
17631;SDS011;8934;51.194;17.150;2022-11-15T07:34:11;67.80;;;38.20;;
17631;SDS011;8934;51.194;17.150;2022-11-15T07:37:17;71.93;;;40.90;;
17631;SDS011;8934;51.194;17.150;2022-11-15T07:40:23;73.60;;;42.73;;
17631;SDS011;8934;51.194;17.150;2022-11-15T07:43:30;73.53;;;41.70;;
17631;SDS011;8934;51.194;17.150;2022-11-15T07:46:39;66.90;;;39.10;;
17631;SDS011;8934;51.194;17.150;2022-11-15T07:49:46;85.00;;;49.57;;
17631;SDS011;8934;51.194;17.150;2022-11-15T07:52:55;78.20;;;45.73;;
17631;SDS011;8934;51.194;17.150;2022-11-15T07:56:01;80.27;;;44.83;;
17631;SDS011;8934;51.194;17.150;2022-11-15T07:59:08;73.17;;;43.90;;
17631;SDS011;8934;51.194;17.150;2022-11-15T08:02:16;81.47;;;50.07;;
17631;SDS011;8934;51.194;17.150;2022-11-15T08:05:22;77.17;;;45.70;;
17631;SDS011;8934;51.194;17.150;2022-11-15T08:08:28;76.30;;;46.43;;
17631;SDS011;8934;51.194;17.150;2022-11-15T08:11:34;81.33;;;46.13;;
17631;SDS011;8934;51.194;17.150;2022-11-15T08:14:41;89.83;;;49.43;;
17631;SDS011;8934;51.194;17.150;2022-11-15T08:17:49;83.83;;;48.57;;
17631;SDS011;8934;51.194;17.150;2022-11-15T08:20:59;81.67;;;48.33;;
17631;SDS011;8934;51.194;17.150;2022-11-15T08:24:08;84.07;;;48.70;;
17631;SDS011;8934;51.194;17.150;2022-11-15T08:27:15;100.57;;;56.23;;
17631;SDS011;8934;51.194;17.150;2022-11-15T08:30:22;96.83;;;56.33;;
17631;SDS011;8934;51.194;17.150;2022-11-15T08:33:30;87.13;;;51.63;;
17631;SDS011;8934;51.194;17.150;2022-11-15T08:36:37;93.07;;;54.00;;
17631;SDS011;8934;51.194;17.150;2022-11-15T08:39:49;95.13;;;54.43;;
17631;SDS011;8934;51.194;17.150;2022-11-15T08:42:55;97.23;;;56.60;;
17631;SDS011;8934;51.194;17.150;2022-11-15T08:46:02;100.17;;;57.93;;
17631;SDS011;8934;51.194;17.150;2022-11-15T08:49:10;99.17;;;60.33;;
17631;SDS011;8934;51.194;17.150;2022-11-15T08:52:16;99.27;;;56.20;;
17631;SDS011;8934;51.194;17.150;2022-11-15T08:55:22;85.77;;;53.50;;
17631;SDS011;8934;51.194;17.150;2022-11-15T08:58:29;86.30;;;52.27;;
17631;SDS011;8934;51.194;17.150;2022-11-15T09:01:35;81.27;;;51.70;;
17631;SDS011;8934;51.194;17.150;2022-11-15T09:04:43;69.73;;;46.00;;
17631;SDS011;8934;51.194;17.150;2022-11-15T09:07:52;70.70;;;46.73;;
17631;SDS011;8934;51.194;17.150;2022-11-15T09:11:02;75.70;;;50.20;;
17631;SDS011;8934;51.194;17.150;2022-11-15T09:14:10;76.37;;;49.63;;
17631;SDS011;8934;51.194;17.150;2022-11-15T09:17:16;76.40;;;48.97;;
17631;SDS011;8934;51.194;17.150;2022-11-15T09:20:29;74.57;;;46.83;;
17631;SDS011;8934;51.194;17.150;2022-11-15T09:23:35;70.60;;;47.93;;
17631;SDS011;8934;51.194;17.150;2022-11-15T09:26:41;78.23;;;49.93;;
17631;SDS011;8934;51.194;17.150;2022-11-15T09:29:48;68.00;;;44.23;;
17631;SDS011;8934;51.194;17.150;2022-11-15T09:32:53;61.20;;;42.73;;
17631;SDS011;8934;51.194;17.150;2022-11-15T09:36:01;61.95;;;43.05;;
17631;SDS011;8934;51.194;17.150;2022-11-15T09:39:09;72.80;;;48.42;;
17631;SDS011;8934;51.194;17.150;2022-11-15T09:42:20;67.53;;;45.03;;
17631;SDS011;8934;51.194;17.150;2022-11-15T09:45:39;68.20;;;44.50;;
17631;SDS011;8934;51.194;17.150;2022-11-15T09:48:55;65.93;;;43.87;;
17631;SDS011;8934;51.194;17.150;2022-11-15T09:52:06;63.33;;;43.90;;
17631;SDS011;8934;51.194;17.150;2022-11-15T09:54:55;62.25;;;41.80;;
17631;SDS011;8934;51.194;17.150;2022-11-15T09:57:44;55.50;;;39.08;;
17631;SDS011;8934;51.194;17.150;2022-11-15T10:00:38;56.72;;;38.58;;
17631;SDS011;8934;51.194;17.150;2022-11-15T10:03:33;55.67;;;39.67;;
17631;SDS011;8934;51.194;17.150;2022-11-15T10:06:23;51.15;;;35.70;;
17631;SDS011;8934;51.194;17.150;2022-11-15T10:09:14;50.25;;;34.95;;
17631;SDS011;8934;51.194;17.150;2022-11-15T10:12:09;52.05;;;36.15;;
17631;SDS011;8934;51.194;17.150;2022-11-15T10:15:01;48.08;;;35.25;;
17631;SDS011;8934;51.194;17.150;2022-11-15T10:17:54;44.80;;;32.15;;
17631;SDS011;8934;51.194;17.150;2022-11-15T10:20:54;42.78;;;31.65;;
17631;SDS011;8934;51.194;17.150;2022-11-15T10:23:45;44.80;;;33.38;;
17631;SDS011;8934;51.194;17.150;2022-11-15T10:26:34;48.17;;;32.72;;
17631;SDS011;8934;51.194;17.150;2022-11-15T10:29:23;44.65;;;32.33;;
17631;SDS011;8934;51.194;17.150;2022-11-15T10:32:12;44.25;;;32.28;;
17631;SDS011;8934;51.194;17.150;2022-11-15T10:35:08;43.92;;;31.88;;
17631;SDS011;8934;51.194;17.150;2022-11-15T10:38:08;41.58;;;31.17;;
17631;SDS011;8934;51.194;17.150;2022-11-15T10:41:06;40.63;;;31.40;;
17631;SDS011;8934;51.194;17.150;2022-11-15T10:44:03;40.95;;;29.55;;
17631;SDS011;8934;51.194;17.150;2022-11-15T10:47:16;40.60;;;29.73;;
17631;SDS011;8934;51.194;17.150;2022-11-15T10:50:25;39.33;;;30.92;;
17631;SDS011;8934;51.194;17.150;2022-11-15T10:53:17;41.70;;;30.30;;
17631;SDS011;8934;51.194;17.150;2022-11-15T10:56:11;38.60;;;29.92;;
17631;SDS011;8934;51.194;17.150;2022-11-15T10:59:02;41.13;;;30.38;;
17631;SDS011;8934;51.194;17.150;2022-11-15T11:01:50;37.42;;;28.35;;
17631;SDS011;8934;51.194;17.150;2022-11-15T11:04:48;34.00;;;26.48;;
17631;SDS011;8934;51.194;17.150;2022-11-15T11:07:37;33.67;;;27.15;;
17631;SDS011;8934;51.194;17.150;2022-11-15T11:10:26;38.38;;;27.10;;
17631;SDS011;8934;51.194;17.150;2022-11-15T11:13:35;31.98;;;24.50;;
17631;SDS011;8934;51.194;17.150;2022-11-15T11:19:42;31.85;;;26.30;;
17631;SDS011;8934;51.194;17.150;2022-11-15T11:22:46;34.92;;;27.55;;
17631;SDS011;8934;51.194;17.150;2022-11-15T11:25:46;36.50;;;27.98;;
17631;SDS011;8934;51.194;17.150;2022-11-15T11:28:39;39.28;;;27.20;;
17631;SDS011;8934;51.194;17.150;2022-11-15T11:31:36;35.63;;;27.65;;
17631;SDS011;8934;51.194;17.150;2022-11-15T11:34:36;31.73;;;25.98;;
17631;SDS011;8934;51.194;17.150;2022-11-15T11:37:37;39.13;;;29.83;;
17631;SDS011;8934;51.194;17.150;2022-11-15T11:40:32;38.38;;;29.20;;
17631;SDS011;8934;51.194;17.150;2022-11-15T11:43:28;38.15;;;28.65;;
17631;SDS011;8934;51.194;17.150;2022-11-15T11:46:25;39.50;;;28.17;;
17631;SDS011;8934;51.194;17.150;2022-11-15T11:49:31;37.85;;;28.33;;
17631;SDS011;8934;51.194;17.150;2022-11-15T11:52:27;34.05;;;26.05;;
17631;SDS011;8934;51.194;17.150;2022-11-15T11:55:19;37.63;;;27.95;;
17631;SDS011;8934;51.194;17.150;2022-11-15T11:58:11;32.33;;;26.08;;
17631;SDS011;8934;51.194;17.150;2022-11-15T12:01:09;33.60;;;26.33;;
17631;SDS011;8934;51.194;17.150;2022-11-15T12:04:02;32.08;;;27.08;;
17631;SDS011;8934;51.194;17.150;2022-11-15T12:06:57;32.53;;;25.60;;
17631;SDS011;8934;51.194;17.150;2022-11-15T12:09:53;34.03;;;26.58;;
17631;SDS011;8934;51.194;17.150;2022-11-15T12:12:47;38.58;;;26.48;;
17631;SDS011;8934;51.194;17.150;2022-11-15T12:15:41;31.05;;;24.80;;
17631;SDS011;8934;51.194;17.150;2022-11-15T12:18:37;32.25;;;25.17;;
17631;SDS011;8934;51.194;17.150;2022-11-15T12:21:27;30.50;;;23.73;;
17631;SDS011;8934;51.194;17.150;2022-11-15T12:24:23;29.90;;;23.45;;
17631;SDS011;8934;51.194;17.150;2022-11-15T12:27:17;32.22;;;23.83;;
17631;SDS011;8934;51.194;17.150;2022-11-15T12:30:19;26.07;;;21.43;;
17631;SDS011;8934;51.194;17.150;2022-11-15T12:33:09;26.13;;;22.38;;
17631;SDS011;8934;51.194;17.150;2022-11-15T12:36:33;27.88;;;22.25;;
17631;SDS011;8934;51.194;17.150;2022-11-15T12:46:12;25.30;;;21.35;;
17631;SDS011;8934;51.194;17.150;2022-11-15T12:49:09;25.40;;;21.90;;
17631;SDS011;8934;51.194;17.150;2022-11-15T12:52:07;24.42;;;20.60;;
17631;SDS011;8934;51.194;17.150;2022-11-15T12:54:56;24.48;;;18.60;;
17631;SDS011;8934;51.194;17.150;2022-11-15T12:57:47;20.88;;;18.70;;
17631;SDS011;8934;51.194;17.150;2022-11-15T13:00:37;22.88;;;17.58;;
17631;SDS011;8934;51.194;17.150;2022-11-15T13:03:27;21.75;;;18.42;;
17631;SDS011;8934;51.194;17.150;2022-11-15T13:06:36;21.50;;;16.95;;
17631;SDS011;8934;51.194;17.150;2022-11-15T13:12:51;20.10;;;18.00;;
17631;SDS011;8934;51.194;17.150;2022-11-15T13:15:45;20.33;;;18.15;;
17631;SDS011;8934;51.194;17.150;2022-11-15T13:18:43;22.95;;;18.80;;
17631;SDS011;8934;51.194;17.150;2022-11-15T13:21:47;22.40;;;19.45;;
17631;SDS011;8934;51.194;17.150;2022-11-15T13:24:54;21.80;;;18.65;;
17631;SDS011;8934;51.194;17.150;2022-11-15T13:27:41;20.08;;;17.98;;
17631;SDS011;8934;51.194;17.150;2022-11-15T13:30:30;19.00;;;17.08;;
17631;SDS011;8934;51.194;17.150;2022-11-15T13:33:19;19.40;;;17.42;;
17631;SDS011;8934;51.194;17.150;2022-11-15T13:36:13;19.38;;;17.08;;
17631;SDS011;8934;51.194;17.150;2022-11-15T13:39:06;19.55;;;17.27;;
17631;SDS011;8934;51.194;17.150;2022-11-15T13:42:01;20.25;;;18.08;;
17631;SDS011;8934;51.194;17.150;2022-11-15T13:44:58;22.65;;;18.23;;
17631;SDS011;8934;51.194;17.150;2022-11-15T13:47:51;21.30;;;17.95;;
17631;SDS011;8934;51.194;17.150;2022-11-15T13:50:41;22.52;;;18.10;;
17631;SDS011;8934;51.194;17.150;2022-11-15T13:53:31;18.45;;;16.58;;
17631;SDS011;8934;51.194;17.150;2022-11-15T13:56:20;17.30;;;15.50;;
17631;SDS011;8934;51.194;17.150;2022-11-15T13:59:09;18.55;;;16.63;;
17631;SDS011;8934;51.194;17.150;2022-11-15T14:02:01;17.05;;;15.25;;
17631;SDS011;8934;51.194;17.150;2022-11-15T14:04:58;20.27;;;16.13;;
17631;SDS011;8934;51.194;17.150;2022-11-15T14:07:52;17.40;;;14.68;;
17631;SDS011;8934;51.194;17.150;2022-11-15T14:10:43;17.83;;;15.70;;
17631;SDS011;8934;51.194;17.150;2022-11-15T14:13:31;16.30;;;14.68;;
17631;SDS011;8934;51.194;17.150;2022-11-15T14:16:19;17.35;;;15.55;;
17631;SDS011;8934;51.194;17.150;2022-11-15T14:19:09;16.52;;;14.77;;
17631;SDS011;8934;51.194;17.150;2022-11-15T14:22:07;17.50;;;15.70;;
17631;SDS011;8934;51.194;17.150;2022-11-15T14:25:13;20.42;;;15.55;;
17631;SDS011;8934;51.194;17.150;2022-11-15T14:28:16;14.57;;;13.07;;
17631;SDS011;8934;51.194;17.150;2022-11-15T14:31:16;16.42;;;14.73;;
17631;SDS011;8934;51.194;17.150;2022-11-15T14:34:07;15.13;;;13.60;;
17631;SDS011;8934;51.194;17.150;2022-11-15T14:36:56;17.88;;;14.98;;
17631;SDS011;8934;51.194;17.150;2022-11-15T14:39:43;15.50;;;14.00;;
17631;SDS011;8934;51.194;17.150;2022-11-15T14:42:31;15.75;;;14.07;;
17631;SDS011;8934;51.194;17.150;2022-11-15T14:45:21;20.88;;;15.80;;
17631;SDS011;8934;51.194;17.150;2022-11-15T14:48:09;16.60;;;14.88;;
17631;SDS011;8934;51.194;17.150;2022-11-15T14:50:57;15.82;;;13.27;;
17631;SDS011;8934;51.194;17.150;2022-11-15T14:53:45;14.70;;;12.82;;
17631;SDS011;8934;51.194;17.150;2022-11-15T14:56:34;16.85;;;14.90;;
17631;SDS011;8934;51.194;17.150;2022-11-15T14:59:21;16.35;;;13.43;;
17631;SDS011;8934;51.194;17.150;2022-11-15T15:02:12;18.38;;;14.98;;
17631;SDS011;8934;51.194;17.150;2022-11-15T15:05:08;18.00;;;15.25;;
17631;SDS011;8934;51.194;17.150;2022-11-15T15:08:01;17.08;;;14.05;;
17631;SDS011;8934;51.194;17.150;2022-11-15T15:10:49;19.77;;;17.13;;
17631;SDS011;8934;51.194;17.150;2022-11-15T15:13:37;19.63;;;15.35;;
17631;SDS011;8934;51.194;17.150;2022-11-15T15:16:25;17.33;;;14.18;;
17631;SDS011;8934;51.194;17.150;2022-11-15T15:19:14;16.83;;;15.00;;
17631;SDS011;8934;51.194;17.150;2022-11-15T15:22:02;17.98;;;15.60;;
17631;SDS011;8934;51.194;17.150;2022-11-15T15:24:50;17.98;;;15.80;;
17631;SDS011;8934;51.194;17.150;2022-11-15T15:27:38;32.42;;;22.45;;
17631;SDS011;8934;51.194;17.150;2022-11-15T15:30:27;31.40;;;22.17;;
17631;SDS011;8934;51.194;17.150;2022-11-15T15:33:16;30.60;;;22.60;;
17631;SDS011;8934;51.194;17.150;2022-11-15T15:36:07;32.47;;;24.85;;
17631;SDS011;8934;51.194;17.150;2022-11-15T15:38:57;31.08;;;23.27;;
17631;SDS011;8934;51.194;17.150;2022-11-15T15:41:45;38.25;;;27.77;;
17631;SDS011;8934;51.194;17.150;2022-11-15T15:44:32;31.83;;;25.38;;
17631;SDS011;8934;51.194;17.150;2022-11-15T15:47:20;32.83;;;24.70;;
17631;SDS011;8934;51.194;17.150;2022-11-15T15:50:14;39.67;;;28.23;;
17631;SDS011;8934;51.194;17.150;2022-11-15T15:53:09;34.17;;;26.37;;
17631;SDS011;8934;51.194;17.150;2022-11-15T15:55:57;39.97;;;28.60;;
17631;SDS011;8934;51.194;17.150;2022-11-15T15:58:45;40.03;;;27.07;;
17631;SDS011;8934;51.194;17.150;2022-11-15T16:01:32;36.03;;;27.33;;
17631;SDS011;8934;51.194;17.150;2022-11-15T16:04:20;37.80;;;28.53;;
17631;SDS011;8934;51.194;17.150;2022-11-15T16:07:08;35.53;;;27.17;;
17631;SDS011;8934;51.194;17.150;2022-11-15T16:10:07;39.70;;;28.27;;
17631;SDS011;8934;51.194;17.150;2022-11-15T16:13:05;33.47;;;24.07;;
17631;SDS011;8934;51.194;17.150;2022-11-15T16:15:52;31.73;;;24.07;;
17631;SDS011;8934;51.194;17.150;2022-11-15T16:18:42;28.40;;;23.27;;
17631;SDS011;8934;51.194;17.150;2022-11-15T16:21:30;28.33;;;20.10;;
17631;SDS011;8934;51.194;17.150;2022-11-15T16:24:17;24.83;;;19.77;;
17631;SDS011;8934;51.194;17.150;2022-11-15T16:27:09;26.17;;;20.00;;
17631;SDS011;8934;51.194;17.150;2022-11-15T16:30:00;30.83;;;21.97;;
17631;SDS011;8934;51.194;17.150;2022-11-15T16:32:48;28.00;;;21.47;;
17631;SDS011;8934;51.194;17.150;2022-11-15T16:35:36;26.77;;;20.47;;
17631;SDS011;8934;51.194;17.150;2022-11-15T16:38:24;24.83;;;18.53;;
17631;SDS011;8934;51.194;17.150;2022-11-15T16:41:12;33.37;;;20.60;;
17631;SDS011;8934;51.194;17.150;2022-11-15T16:44:02;36.27;;;24.90;;
17631;SDS011;8934;51.194;17.150;2022-11-15T16:46:50;28.97;;;22.70;;
17631;SDS011;8934;51.194;17.150;2022-11-15T16:49:38;32.07;;;21.27;;
17631;SDS011;8934;51.194;17.150;2022-11-15T16:52:30;25.77;;;19.73;;
17631;SDS011;8934;51.194;17.150;2022-11-15T16:55:18;27.73;;;19.37;;
17631;SDS011;8934;51.194;17.150;2022-11-15T16:58:07;24.23;;;18.30;;
17631;SDS011;8934;51.194;17.150;2022-11-15T17:00:57;24.50;;;18.63;;
17631;SDS011;8934;51.194;17.150;2022-11-15T17:03:45;24.00;;;19.40;;
17631;SDS011;8934;51.194;17.150;2022-11-15T17:06:33;23.03;;;18.47;;
17631;SDS011;8934;51.194;17.150;2022-11-15T17:09:21;26.23;;;19.30;;
17631;SDS011;8934;51.194;17.150;2022-11-15T17:12:09;24.27;;;20.13;;
17631;SDS011;8934;51.194;17.150;2022-11-15T17:14:57;23.77;;;19.63;;
17631;SDS011;8934;51.194;17.150;2022-11-15T17:17:51;29.07;;;21.60;;
17631;SDS011;8934;51.194;17.150;2022-11-15T17:20:39;29.13;;;21.10;;
17631;SDS011;8934;51.194;17.150;2022-11-15T17:23:28;30.53;;;22.23;;
17631;SDS011;8934;51.194;17.150;2022-11-15T17:26:15;26.73;;;18.93;;
17631;SDS011;8934;51.194;17.150;2022-11-15T17:29:23;31.27;;;21.50;;
17631;SDS011;8934;51.194;17.150;2022-11-15T17:32:11;35.40;;;24.50;;
17631;SDS011;8934;51.194;17.150;2022-11-15T17:37:47;29.97;;;24.13;;
17631;SDS011;8934;51.194;17.150;2022-11-15T17:40:35;29.20;;;22.70;;
17631;SDS011;8934;51.194;17.150;2022-11-15T17:46:11;32.80;;;23.10;;
17631;SDS011;8934;51.194;17.150;2022-11-15T18:25:23;34.80;;;23.73;;
17631;SDS011;8934;51.194;17.150;2022-11-15T18:28:11;33.00;;;22.77;;
17631;SDS011;8934;51.194;17.150;2022-11-15T18:30:59;30.13;;;21.80;;
17631;SDS011;8934;51.194;17.150;2022-11-15T18:33:48;29.10;;;21.70;;
17631;SDS011;8934;51.194;17.150;2022-11-15T18:36:36;39.60;;;24.63;;
17631;SDS011;8934;51.194;17.150;2022-11-15T18:39:24;34.30;;;23.30;;
17631;SDS011;8934;51.194;17.150;2022-11-15T18:42:13;33.20;;;23.23;;
17631;SDS011;8934;51.194;17.150;2022-11-15T18:45:01;31.60;;;23.97;;
17631;SDS011;8934;51.194;17.150;2022-11-15T18:47:50;34.13;;;22.63;;